sensor_id;sensor_type;location;lat;lon;timestamp;P1;durP1;ratioP1;P2;durP2;ratioP2
1925;SDS011;964;42.606;23.588;2023-03-31T00:02:10;4.33;;;2.70;;
1925;SDS011;964;42.606;23.588;2023-03-31T00:04:40;3.93;;;2.20;;
1925;SDS011;964;42.606;23.588;2023-03-31T00:07:10;2.87;;;2.43;;
1925;SDS011;964;42.606;23.588;2023-03-31T00:09:38;5.20;;;3.20;;
1925;SDS011;964;42.606;23.588;2023-03-31T00:12:06;4.27;;;3.67;;
1925;SDS011;964;42.606;23.588;2023-03-31T00:14:33;3.37;;;2.50;;
1925;SDS011;964;42.606;23.588;2023-03-31T00:16:59;8.70;;;3.33;;
1925;SDS011;964;42.606;23.588;2023-03-31T00:19:28;2.90;;;2.60;;
1925;SDS011;964;42.606;23.588;2023-03-31T00:21:58;3.63;;;3.23;;
1925;SDS011;964;42.606;23.588;2023-03-31T00:24:26;4.10;;;3.00;;
1925;SDS011;964;42.606;23.588;2023-03-31T00:26:56;4.37;;;3.10;;
1925;SDS011;964;42.606;23.588;2023-03-31T00:29:23;7.17;;;2.83;;
1925;SDS011;964;42.606;23.588;2023-03-31T00:31:50;3.63;;;2.97;;
1925;SDS011;964;42.606;23.588;2023-03-31T00:34:16;3.77;;;2.53;;
1925;SDS011;964;42.606;23.588;2023-03-31T00:36:43;4.70;;;2.47;;
1925;SDS011;964;42.606;23.588;2023-03-31T00:39:13;2.67;;;2.40;;
1925;SDS011;964;42.606;23.588;2023-03-31T00:41:42;4.37;;;2.70;;
1925;SDS011;964;42.606;23.588;2023-03-31T00:44:10;3.40;;;2.63;;
1925;SDS011;964;42.606;23.588;2023-03-31T00:46:43;3.70;;;3.07;;
1925;SDS011;964;42.606;23.588;2023-03-31T00:49:16;4.43;;;2.93;;
1925;SDS011;964;42.606;23.588;2023-03-31T00:51:46;5.00;;;3.30;;
1925;SDS011;964;42.606;23.588;2023-03-31T00:54:17;4.93;;;2.77;;
1925;SDS011;964;42.606;23.588;2023-03-31T00:56:46;3.43;;;2.63;;
1925;SDS011;964;42.606;23.588;2023-03-31T00:59:17;5.53;;;3.20;;
1925;SDS011;964;42.606;23.588;2023-03-31T01:01:45;4.03;;;3.03;;
1925;SDS011;964;42.606;23.588;2023-03-31T01:04:14;4.00;;;2.97;;
1925;SDS011;964;42.606;23.588;2023-03-31T01:06:49;4.90;;;2.90;;
1925;SDS011;964;42.606;23.588;2023-03-31T01:09:27;5.70;;;2.90;;
1925;SDS011;964;42.606;23.588;2023-03-31T01:11:59;3.30;;;2.70;;
1925;SDS011;964;42.606;23.588;2023-03-31T01:14:27;4.77;;;3.30;;
1925;SDS011;964;42.606;23.588;2023-03-31T01:16:55;8.43;;;2.93;;
1925;SDS011;964;42.606;23.588;2023-03-31T01:19:23;4.37;;;3.00;;
1925;SDS011;964;42.606;23.588;2023-03-31T01:25:24;5.13;;;2.80;;
1925;SDS011;964;42.606;23.588;2023-03-31T01:28:05;5.43;;;2.60;;
1925;SDS011;964;42.606;23.588;2023-03-31T01:34:09;5.67;;;2.63;;
1925;SDS011;964;42.606;23.588;2023-03-31T01:40:21;6.63;;;3.20;;
1925;SDS011;964;42.606;23.588;2023-03-31T01:43:05;6.50;;;2.67;;
1925;SDS011;964;42.606;23.588;2023-03-31T01:45:40;9.70;;;2.97;;
1925;SDS011;964;42.606;23.588;2023-03-31T01:48:16;6.00;;;3.00;;
1925;SDS011;964;42.606;23.588;2023-03-31T01:50:48;5.80;;;3.23;;
1925;SDS011;964;42.606;23.588;2023-03-31T01:53:23;7.57;;;4.40;;
1925;SDS011;964;42.606;23.588;2023-03-31T01:56:00;4.97;;;3.47;;
1925;SDS011;964;42.606;23.588;2023-03-31T01:58:33;4.93;;;4.43;;
1925;SDS011;964;42.606;23.588;2023-03-31T02:01:04;4.07;;;3.40;;
1925;SDS011;964;42.606;23.588;2023-03-31T02:03:39;4.53;;;3.23;;
1925;SDS011;964;42.606;23.588;2023-03-31T02:06:11;6.00;;;3.67;;
1925;SDS011;964;42.606;23.588;2023-03-31T02:08:43;6.50;;;3.47;;
1925;SDS011;964;42.606;23.588;2023-03-31T02:11:15;4.77;;;3.67;;
1925;SDS011;964;42.606;23.588;2023-03-31T02:13:43;6.03;;;3.63;;
1925;SDS011;964;42.606;23.588;2023-03-31T02:16:15;4.40;;;2.70;;
1925;SDS011;964;42.606;23.588;2023-03-31T02:18:48;4.83;;;3.30;;
1925;SDS011;964;42.606;23.588;2023-03-31T02:21:19;4.30;;;3.20;;
1925;SDS011;964;42.606;23.588;2023-03-31T02:23:47;4.90;;;2.93;;
1925;SDS011;964;42.606;23.588;2023-03-31T02:26:18;4.07;;;2.93;;
1925;SDS011;964;42.606;23.588;2023-03-31T02:28:49;4.77;;;3.60;;
1925;SDS011;964;42.606;23.588;2023-03-31T02:31:21;7.43;;;3.10;;
1925;SDS011;964;42.606;23.588;2023-03-31T02:33:55;4.40;;;3.33;;
1925;SDS011;964;42.606;23.588;2023-03-31T02:36:22;11.60;;;4.33;;
1925;SDS011;964;42.606;23.588;2023-03-31T02:38:51;7.27;;;3.43;;
1925;SDS011;964;42.606;23.588;2023-03-31T02:41:21;4.10;;;3.10;;
1925;SDS011;964;42.606;23.588;2023-03-31T02:43:48;5.33;;;3.80;;
1925;SDS011;964;42.606;23.588;2023-03-31T02:46:14;4.10;;;3.10;;
1925;SDS011;964;42.606;23.588;2023-03-31T02:48:42;5.33;;;3.50;;
1925;SDS011;964;42.606;23.588;2023-03-31T02:54:28;5.00;;;3.30;;
1925;SDS011;964;42.606;23.588;2023-03-31T03:00:16;5.47;;;3.30;;
1925;SDS011;964;42.606;23.588;2023-03-31T03:02:55;15.47;;;3.73;;
1925;SDS011;964;42.606;23.588;2023-03-31T03:05:36;9.07;;;3.27;;
1925;SDS011;964;42.606;23.588;2023-03-31T03:08:13;6.70;;;4.60;;
1925;SDS011;964;42.606;23.588;2023-03-31T03:10:49;4.70;;;3.93;;
1925;SDS011;964;42.606;23.588;2023-03-31T03:13:26;10.40;;;4.40;;
1925;SDS011;964;42.606;23.588;2023-03-31T03:15:59;9.97;;;4.30;;
1925;SDS011;964;42.606;23.588;2023-03-31T03:18:29;6.50;;;4.17;;
1925;SDS011;964;42.606;23.588;2023-03-31T03:20:56;7.93;;;5.30;;
1925;SDS011;964;42.606;23.588;2023-03-31T03:23:23;7.93;;;4.63;;
1925;SDS011;964;42.606;23.588;2023-03-31T03:25:50;5.60;;;4.83;;
1925;SDS011;964;42.606;23.588;2023-03-31T03:28:16;6.23;;;4.50;;
1925;SDS011;964;42.606;23.588;2023-03-31T03:30:44;6.73;;;4.50;;
1925;SDS011;964;42.606;23.588;2023-03-31T03:33:12;5.50;;;4.30;;
1925;SDS011;964;42.606;23.588;2023-03-31T03:35:41;9.30;;;5.03;;
1925;SDS011;964;42.606;23.588;2023-03-31T03:38:07;9.67;;;4.90;;
1925;SDS011;964;42.606;23.588;2023-03-31T03:40:34;9.80;;;4.50;;
1925;SDS011;964;42.606;23.588;2023-03-31T03:43:01;6.63;;;4.20;;
1925;SDS011;964;42.606;23.588;2023-03-31T03:45:27;10.53;;;5.00;;
1925;SDS011;964;42.606;23.588;2023-03-31T03:47:54;5.20;;;4.10;;
1925;SDS011;964;42.606;23.588;2023-03-31T03:50:22;8.90;;;5.00;;
1925;SDS011;964;42.606;23.588;2023-03-31T03:52:49;5.10;;;4.30;;
1925;SDS011;964;42.606;23.588;2023-03-31T03:55:16;6.10;;;4.27;;
1925;SDS011;964;42.606;23.588;2023-03-31T03:57:42;6.00;;;4.47;;
1925;SDS011;964;42.606;23.588;2023-03-31T04:00:09;11.70;;;4.87;;
1925;SDS011;964;42.606;23.588;2023-03-31T04:02:37;9.60;;;4.40;;
1925;SDS011;964;42.606;23.588;2023-03-31T04:05:04;6.20;;;3.90;;
1925;SDS011;964;42.606;23.588;2023-03-31T04:07:32;7.37;;;4.50;;
1925;SDS011;964;42.606;23.588;2023-03-31T04:09:58;9.00;;;3.40;;
1925;SDS011;964;42.606;23.588;2023-03-31T04:12:25;5.30;;;3.00;;
1925;SDS011;964;42.606;23.588;2023-03-31T04:14:52;11.60;;;5.37;;
1925;SDS011;964;42.606;23.588;2023-03-31T04:17:18;18.83;;;8.90;;
1925;SDS011;964;42.606;23.588;2023-03-31T04:19:57;8.23;;;5.50;;
1925;SDS011;964;42.606;23.588;2023-03-31T04:22:25;9.40;;;5.23;;
1925;SDS011;964;42.606;23.588;2023-03-31T04:24:54;5.70;;;4.10;;
1925;SDS011;964;42.606;23.588;2023-03-31T04:27:22;4.10;;;3.70;;
1925;SDS011;964;42.606;23.588;2023-03-31T04:29:52;8.20;;;4.03;;
1925;SDS011;964;42.606;23.588;2023-03-31T04:32:19;6.30;;;4.27;;
1925;SDS011;964;42.606;23.588;2023-03-31T04:34:46;7.13;;;4.40;;
1925;SDS011;964;42.606;23.588;2023-03-31T04:37:14;6.20;;;4.90;;
1925;SDS011;964;42.606;23.588;2023-03-31T04:39:41;8.47;;;5.37;;
1925;SDS011;964;42.606;23.588;2023-03-31T04:42:12;5.70;;;4.67;;
1925;SDS011;964;42.606;23.588;2023-03-31T04:44:39;11.23;;;5.47;;
1925;SDS011;964;42.606;23.588;2023-03-31T04:47:05;12.07;;;6.13;;
1925;SDS011;964;42.606;23.588;2023-03-31T04:49:32;10.03;;;5.10;;
1925;SDS011;964;42.606;23.588;2023-03-31T04:52:00;8.57;;;5.00;;
1925;SDS011;964;42.606;23.588;2023-03-31T04:54:27;7.70;;;5.17;;
1925;SDS011;964;42.606;23.588;2023-03-31T04:56:54;16.77;;;13.40;;
1925;SDS011;964;42.606;23.588;2023-03-31T04:59:21;10.43;;;8.70;;
1925;SDS011;964;42.606;23.588;2023-03-31T05:01:48;12.77;;;7.30;;
1925;SDS011;964;42.606;23.588;2023-03-31T05:04:15;9.53;;;7.27;;
1925;SDS011;964;42.606;23.588;2023-03-31T05:06:41;10.33;;;7.67;;
1925;SDS011;964;42.606;23.588;2023-03-31T05:09:08;12.47;;;9.67;;
1925;SDS011;964;42.606;23.588;2023-03-31T05:11:35;13.30;;;9.10;;
1925;SDS011;964;42.606;23.588;2023-03-31T05:14:02;10.47;;;8.40;;
1925;SDS011;964;42.606;23.588;2023-03-31T05:16:30;11.43;;;9.17;;
1925;SDS011;964;42.606;23.588;2023-03-31T05:18:57;10.90;;;8.20;;
1925;SDS011;964;42.606;23.588;2023-03-31T05:21:23;11.70;;;8.43;;
1925;SDS011;964;42.606;23.588;2023-03-31T05:23:52;25.87;;;20.87;;
1925;SDS011;964;42.606;23.588;2023-03-31T05:26:18;19.90;;;14.10;;
1925;SDS011;964;42.606;23.588;2023-03-31T05:28:47;19.40;;;12.37;;
1925;SDS011;964;42.606;23.588;2023-03-31T05:31:13;18.70;;;12.50;;
1925;SDS011;964;42.606;23.588;2023-03-31T05:33:43;17.17;;;11.37;;
1925;SDS011;964;42.606;23.588;2023-03-31T05:36:10;35.23;;;21.27;;
1925;SDS011;964;42.606;23.588;2023-03-31T05:38:38;30.10;;;17.60;;
1925;SDS011;964;42.606;23.588;2023-03-31T05:41:05;31.40;;;18.03;;
1925;SDS011;964;42.606;23.588;2023-03-31T05:43:33;23.93;;;16.07;;
1925;SDS011;964;42.606;23.588;2023-03-31T05:45:59;35.23;;;16.20;;
1925;SDS011;964;42.606;23.588;2023-03-31T05:48:26;22.70;;;13.80;;
1925;SDS011;964;42.606;23.588;2023-03-31T05:50:56;40.60;;;20.83;;
1925;SDS011;964;42.606;23.588;2023-03-31T05:53:23;39.07;;;19.60;;
1925;SDS011;964;42.606;23.588;2023-03-31T05:55:55;37.83;;;23.80;;
1925;SDS011;964;42.606;23.588;2023-03-31T05:58:22;27.63;;;19.70;;
1925;SDS011;964;42.606;23.588;2023-03-31T06:00:49;22.20;;;16.60;;
1925;SDS011;964;42.606;23.588;2023-03-31T06:03:17;21.33;;;12.50;;
1925;SDS011;964;42.606;23.588;2023-03-31T06:05:45;20.50;;;13.50;;
1925;SDS011;964;42.606;23.588;2023-03-31T06:08:14;12.73;;;9.73;;
1925;SDS011;964;42.606;23.588;2023-03-31T06:10:41;10.83;;;5.90;;
1925;SDS011;964;42.606;23.588;2023-03-31T06:13:08;8.83;;;5.67;;
1925;SDS011;964;42.606;23.588;2023-03-31T06:15:34;7.70;;;4.47;;
1925;SDS011;964;42.606;23.588;2023-03-31T06:18:02;4.33;;;3.20;;
1925;SDS011;964;42.606;23.588;2023-03-31T06:20:31;5.73;;;3.20;;
1925;SDS011;964;42.606;23.588;2023-03-31T06:22:58;5.60;;;2.97;;
1925;SDS011;964;42.606;23.588;2023-03-31T06:25:26;4.43;;;2.97;;
1925;SDS011;964;42.606;23.588;2023-03-31T06:27:53;4.30;;;3.27;;
1925;SDS011;964;42.606;23.588;2023-03-31T06:30:19;4.17;;;2.77;;
1925;SDS011;964;42.606;23.588;2023-03-31T06:32:46;4.23;;;3.00;;
1925;SDS011;964;42.606;23.588;2023-03-31T06:35:13;4.97;;;2.90;;
1925;SDS011;964;42.606;23.588;2023-03-31T06:37:40;9.43;;;3.20;;
1925;SDS011;964;42.606;23.588;2023-03-31T06:40:07;4.80;;;3.30;;
1925;SDS011;964;42.606;23.588;2023-03-31T06:42:36;3.80;;;3.10;;
1925;SDS011;964;42.606;23.588;2023-03-31T06:45:03;6.43;;;3.70;;
1925;SDS011;964;42.606;23.588;2023-03-31T06:47:30;6.07;;;3.20;;
1925;SDS011;964;42.606;23.588;2023-03-31T06:49:56;6.30;;;3.90;;
1925;SDS011;964;42.606;23.588;2023-03-31T06:52:23;5.80;;;3.37;;
1925;SDS011;964;42.606;23.588;2023-03-31T06:54:50;6.67;;;3.50;;
1925;SDS011;964;42.606;23.588;2023-03-31T06:57:17;3.83;;;3.47;;
1925;SDS011;964;42.606;23.588;2023-03-31T06:59:46;5.27;;;3.70;;
1925;SDS011;964;42.606;23.588;2023-03-31T07:02:12;5.27;;;3.30;;
1925;SDS011;964;42.606;23.588;2023-03-31T07:04:39;5.80;;;3.60;;
1925;SDS011;964;42.606;23.588;2023-03-31T07:07:06;9.43;;;3.93;;
1925;SDS011;964;42.606;23.588;2023-03-31T07:09:32;7.10;;;3.83;;
1925;SDS011;964;42.606;23.588;2023-03-31T07:11:59;4.60;;;3.43;;
1925;SDS011;964;42.606;23.588;2023-03-31T07:14:29;5.23;;;4.73;;
1925;SDS011;964;42.606;23.588;2023-03-31T07:16:57;6.57;;;3.77;;
1925;SDS011;964;42.606;23.588;2023-03-31T07:19:24;6.70;;;3.90;;
1925;SDS011;964;42.606;23.588;2023-03-31T07:21:51;4.37;;;4.00;;
1925;SDS011;964;42.606;23.588;2023-03-31T07:24:18;6.50;;;4.17;;
1925;SDS011;964;42.606;23.588;2023-03-31T07:26:45;5.50;;;3.50;;
1925;SDS011;964;42.606;23.588;2023-03-31T07:29:11;10.87;;;5.37;;
1925;SDS011;964;42.606;23.588;2023-03-31T07:31:38;6.80;;;4.77;;
1925;SDS011;964;42.606;23.588;2023-03-31T07:34:06;5.90;;;4.00;;
1925;SDS011;964;42.606;23.588;2023-03-31T07:36:33;7.10;;;3.07;;
1925;SDS011;964;42.606;23.588;2023-03-31T07:38:59;4.33;;;3.60;;
1925;SDS011;964;42.606;23.588;2023-03-31T07:41:26;7.30;;;4.27;;
1925;SDS011;964;42.606;23.588;2023-03-31T07:43:53;10.33;;;5.20;;
1925;SDS011;964;42.606;23.588;2023-03-31T07:46:23;9.10;;;5.20;;
1925;SDS011;964;42.606;23.588;2023-03-31T07:48:51;6.77;;;5.20;;
1925;SDS011;964;42.606;23.588;2023-03-31T07:51:21;10.47;;;4.27;;
1925;SDS011;964;42.606;23.588;2023-03-31T07:53:50;4.70;;;3.80;;
1925;SDS011;964;42.606;23.588;2023-03-31T07:56:18;5.97;;;3.83;;
1925;SDS011;964;42.606;23.588;2023-03-31T07:58:45;7.17;;;4.20;;
1925;SDS011;964;42.606;23.588;2023-03-31T08:01:13;7.27;;;4.90;;
1925;SDS011;964;42.606;23.588;2023-03-31T08:03:41;6.73;;;4.47;;
1925;SDS011;964;42.606;23.588;2023-03-31T08:06:08;7.23;;;3.77;;
1925;SDS011;964;42.606;23.588;2023-03-31T08:08:37;6.07;;;4.13;;
1925;SDS011;964;42.606;23.588;2023-03-31T08:11:07;5.80;;;3.60;;
1925;SDS011;964;42.606;23.588;2023-03-31T08:13:33;7.57;;;4.50;;
1925;SDS011;964;42.606;23.588;2023-03-31T08:16:00;7.70;;;6.67;;
1925;SDS011;964;42.606;23.588;2023-03-31T08:18:27;11.73;;;5.57;;
1925;SDS011;964;42.606;23.588;2023-03-31T08:20:54;6.50;;;4.40;;
1925;SDS011;964;42.606;23.588;2023-03-31T08:23:20;6.20;;;4.47;;
1925;SDS011;964;42.606;23.588;2023-03-31T08:25:48;5.93;;;4.37;;
1925;SDS011;964;42.606;23.588;2023-03-31T08:28:15;10.00;;;5.00;;
1925;SDS011;964;42.606;23.588;2023-03-31T08:30:42;11.40;;;5.10;;
1925;SDS011;964;42.606;23.588;2023-03-31T08:33:09;6.60;;;5.03;;
1925;SDS011;964;42.606;23.588;2023-03-31T08:35:36;6.23;;;4.90;;
1925;SDS011;964;42.606;23.588;2023-03-31T08:38:03;6.90;;;4.70;;
1925;SDS011;964;42.606;23.588;2023-03-31T08:40:30;6.10;;;5.27;;
1925;SDS011;964;42.606;23.588;2023-03-31T08:43:01;6.03;;;5.43;;
1925;SDS011;964;42.606;23.588;2023-03-31T08:45:33;7.77;;;5.53;;
1925;SDS011;964;42.606;23.588;2023-03-31T08:48:02;8.87;;;5.90;;
1925;SDS011;964;42.606;23.588;2023-03-31T08:50:32;8.73;;;5.13;;
1925;SDS011;964;42.606;23.588;2023-03-31T08:53:12;6.00;;;5.40;;
1925;SDS011;964;42.606;23.588;2023-03-31T08:55:47;7.40;;;5.10;;
1925;SDS011;964;42.606;23.588;2023-03-31T08:58:20;6.63;;;5.13;;
1925;SDS011;964;42.606;23.588;2023-03-31T09:00:55;6.20;;;5.60;;
1925;SDS011;964;42.606;23.588;2023-03-31T09:03:29;5.70;;;5.10;;
1925;SDS011;964;42.606;23.588;2023-03-31T09:06:00;5.83;;;5.17;;
1925;SDS011;964;42.606;23.588;2023-03-31T09:08:31;7.00;;;5.80;;
1925;SDS011;964;42.606;23.588;2023-03-31T09:11:12;6.40;;;5.43;;
1925;SDS011;964;42.606;23.588;2023-03-31T09:13:51;6.90;;;5.07;;
1925;SDS011;964;42.606;23.588;2023-03-31T09:16:27;5.80;;;4.50;;
1925;SDS011;964;42.606;23.588;2023-03-31T09:18:59;5.37;;;3.43;;
1925;SDS011;964;42.606;23.588;2023-03-31T09:21:27;7.50;;;4.00;;
1925;SDS011;964;42.606;23.588;2023-03-31T09:23:59;5.73;;;3.20;;
1925;SDS011;964;42.606;23.588;2023-03-31T09:26:33;4.20;;;3.20;;
1925;SDS011;964;42.606;23.588;2023-03-31T09:29:06;7.27;;;4.47;;
1925;SDS011;964;42.606;23.588;2023-03-31T09:31:40;5.10;;;2.87;;
1925;SDS011;964;42.606;23.588;2023-03-31T09:34:11;5.20;;;2.30;;
1925;SDS011;964;42.606;23.588;2023-03-31T09:36:39;3.37;;;2.57;;
1925;SDS011;964;42.606;23.588;2023-03-31T09:39:07;4.97;;;4.23;;
1925;SDS011;964;42.606;23.588;2023-03-31T09:41:38;5.40;;;2.40;;
1925;SDS011;964;42.606;23.588;2023-03-31T09:44:12;4.73;;;3.10;;
1925;SDS011;964;42.606;23.588;2023-03-31T09:46:48;3.70;;;2.30;;
1925;SDS011;964;42.606;23.588;2023-03-31T09:49:16;3.70;;;2.30;;
1925;SDS011;964;42.606;23.588;2023-03-31T09:51:45;3.83;;;2.63;;
1925;SDS011;964;42.606;23.588;2023-03-31T09:54:18;6.73;;;2.60;;
1925;SDS011;964;42.606;23.588;2023-03-31T09:56:50;3.57;;;2.47;;
1925;SDS011;964;42.606;23.588;2023-03-31T09:59:20;5.93;;;2.60;;
1925;SDS011;964;42.606;23.588;2023-03-31T10:01:48;2.60;;;2.17;;
1925;SDS011;964;42.606;23.588;2023-03-31T10:04:19;3.70;;;2.70;;
1925;SDS011;964;42.606;23.588;2023-03-31T10:06:48;7.87;;;2.80;;
1925;SDS011;964;42.606;23.588;2023-03-31T10:09:17;6.80;;;2.30;;
1925;SDS011;964;42.606;23.588;2023-03-31T10:11:55;3.03;;;2.73;;
1925;SDS011;964;42.606;23.588;2023-03-31T10:14:26;3.53;;;2.20;;
1925;SDS011;964;42.606;23.588;2023-03-31T10:16:58;5.60;;;2.13;;
1925;SDS011;964;42.606;23.588;2023-03-31T10:19:31;5.90;;;2.30;;
1925;SDS011;964;42.606;23.588;2023-03-31T10:22:00;3.73;;;2.67;;
1925;SDS011;964;42.606;23.588;2023-03-31T10:24:35;2.83;;;2.30;;
1925;SDS011;964;42.606;23.588;2023-03-31T10:27:04;6.60;;;2.17;;
1925;SDS011;964;42.606;23.588;2023-03-31T10:29:34;4.50;;;2.30;;
1925;SDS011;964;42.606;23.588;2023-03-31T10:32:03;4.30;;;2.73;;
1925;SDS011;964;42.606;23.588;2023-03-31T10:34:34;3.07;;;2.10;;
1925;SDS011;964;42.606;23.588;2023-03-31T10:37:04;2.90;;;2.37;;
1925;SDS011;964;42.606;23.588;2023-03-31T10:39:32;7.23;;;2.33;;
1925;SDS011;964;42.606;23.588;2023-03-31T10:41:59;2.30;;;2.10;;
1925;SDS011;964;42.606;23.588;2023-03-31T10:44:30;2.40;;;2.20;;
1925;SDS011;964;42.606;23.588;2023-03-31T10:47:04;4.33;;;2.20;;
1925;SDS011;964;42.606;23.588;2023-03-31T10:49:43;3.70;;;2.20;;
1925;SDS011;964;42.606;23.588;2023-03-31T10:52:17;3.10;;;2.70;;
1925;SDS011;964;42.606;23.588;2023-03-31T10:54:47;2.40;;;2.20;;
1925;SDS011;964;42.606;23.588;2023-03-31T10:57:14;4.70;;;2.37;;
1925;SDS011;964;42.606;23.588;2023-03-31T11:02:46;5.27;;;2.57;;
1925;SDS011;964;42.606;23.588;2023-03-31T11:05:35;4.10;;;2.40;;
1925;SDS011;964;42.606;23.588;2023-03-31T11:08:15;7.00;;;2.53;;
1925;SDS011;964;42.606;23.588;2023-03-31T11:10:53;4.13;;;2.30;;
1925;SDS011;964;42.606;23.588;2023-03-31T11:13:33;3.30;;;2.27;;
1925;SDS011;964;42.606;23.588;2023-03-31T11:16:08;2.93;;;2.10;;
1925;SDS011;964;42.606;23.588;2023-03-31T11:18:49;5.33;;;2.27;;
1925;SDS011;964;42.606;23.588;2023-03-31T11:21:26;3.47;;;2.27;;
1925;SDS011;964;42.606;23.588;2023-03-31T11:24:07;5.53;;;2.40;;
1925;SDS011;964;42.606;23.588;2023-03-31T11:26:45;3.03;;;2.30;;
1925;SDS011;964;42.606;23.588;2023-03-31T11:29:27;11.43;;;5.03;;
1925;SDS011;964;42.606;23.588;2023-03-31T11:32:04;7.67;;;2.27;;
1925;SDS011;964;42.606;23.588;2023-03-31T11:34:54;3.00;;;2.27;;
1925;SDS011;964;42.606;23.588;2023-03-31T11:37:32;4.13;;;2.40;;
1925;SDS011;964;42.606;23.588;2023-03-31T11:40:19;3.73;;;2.67;;
1925;SDS011;964;42.606;23.588;2023-03-31T11:42:54;3.90;;;2.40;;
1925;SDS011;964;42.606;23.588;2023-03-31T11:45:27;5.23;;;3.43;;
1925;SDS011;964;42.606;23.588;2023-03-31T11:47:58;3.40;;;2.33;;
1925;SDS011;964;42.606;23.588;2023-03-31T11:50:31;2.77;;;1.97;;
1925;SDS011;964;42.606;23.588;2023-03-31T11:53:04;5.23;;;2.83;;
1925;SDS011;964;42.606;23.588;2023-03-31T11:55:33;3.87;;;1.90;;
1925;SDS011;964;42.606;23.588;2023-03-31T11:58:03;2.30;;;2.10;;
1925;SDS011;964;42.606;23.588;2023-03-31T12:00:33;6.10;;;2.30;;
1925;SDS011;964;42.606;23.588;2023-03-31T12:03:06;5.73;;;2.63;;
1925;SDS011;964;42.606;23.588;2023-03-31T12:05:41;7.13;;;2.80;;
1925;SDS011;964;42.606;23.588;2023-03-31T12:08:12;3.20;;;2.90;;
1925;SDS011;964;42.606;23.588;2023-03-31T12:10:42;3.60;;;2.60;;
1925;SDS011;964;42.606;23.588;2023-03-31T12:13:21;4.23;;;3.43;;
1925;SDS011;964;42.606;23.588;2023-03-31T12:15:59;5.77;;;2.33;;
1925;SDS011;964;42.606;23.588;2023-03-31T12:18:31;7.00;;;2.97;;
1925;SDS011;964;42.606;23.588;2023-03-31T12:21:03;3.50;;;2.63;;
1925;SDS011;964;42.606;23.588;2023-03-31T12:23:33;4.10;;;2.60;;
1925;SDS011;964;42.606;23.588;2023-03-31T12:26:05;7.60;;;2.40;;
1925;SDS011;964;42.606;23.588;2023-03-31T12:28:40;2.97;;;2.50;;
1925;SDS011;964;42.606;23.588;2023-03-31T12:31:10;3.50;;;2.23;;
1925;SDS011;964;42.606;23.588;2023-03-31T12:33:42;4.30;;;2.13;;
1925;SDS011;964;42.606;23.588;2023-03-31T12:36:20;4.20;;;2.00;;
1925;SDS011;964;42.606;23.588;2023-03-31T12:38:57;3.50;;;1.80;;
1925;SDS011;964;42.606;23.588;2023-03-31T12:41:35;4.60;;;2.43;;
1925;SDS011;964;42.606;23.588;2023-03-31T12:44:13;7.10;;;2.57;;
1925;SDS011;964;42.606;23.588;2023-03-31T12:46:53;2.73;;;2.37;;
1925;SDS011;964;42.606;23.588;2023-03-31T12:49:51;7.03;;;2.30;;
1925;SDS011;964;42.606;23.588;2023-03-31T12:52:27;3.60;;;2.20;;
1925;SDS011;964;42.606;23.588;2023-03-31T12:55:07;4.50;;;2.23;;
1925;SDS011;964;42.606;23.588;2023-03-31T12:57:50;4.03;;;2.33;;
1925;SDS011;964;42.606;23.588;2023-03-31T13:00:18;6.03;;;2.30;;
1925;SDS011;964;42.606;23.588;2023-03-31T13:02:47;5.73;;;2.37;;
1925;SDS011;964;42.606;23.588;2023-03-31T13:08:13;3.00;;;2.13;;
1925;SDS011;964;42.606;23.588;2023-03-31T13:11:19;5.53;;;2.33;;
1925;SDS011;964;42.606;23.588;2023-03-31T13:13:54;4.37;;;2.30;;
1925;SDS011;964;42.606;23.588;2023-03-31T13:16:25;4.33;;;2.90;;
1925;SDS011;964;42.606;23.588;2023-03-31T13:18:53;3.57;;;2.63;;
1925;SDS011;964;42.606;23.588;2023-03-31T13:21:21;3.40;;;2.53;;
1925;SDS011;964;42.606;23.588;2023-03-31T13:23:50;6.07;;;2.73;;
1925;SDS011;964;42.606;23.588;2023-03-31T13:26:36;2.80;;;2.50;;
1925;SDS011;964;42.606;23.588;2023-03-31T13:29:08;3.67;;;2.70;;
1925;SDS011;964;42.606;23.588;2023-03-31T13:34:45;5.70;;;3.17;;
1925;SDS011;964;42.606;23.588;2023-03-31T13:37:18;4.70;;;2.63;;
1925;SDS011;964;42.606;23.588;2023-03-31T13:43:24;4.90;;;2.23;;
1925;SDS011;964;42.606;23.588;2023-03-31T13:49:17;3.07;;;2.07;;
1925;SDS011;964;42.606;23.588;2023-03-31T13:52:08;4.00;;;2.00;;
1925;SDS011;964;42.606;23.588;2023-03-31T13:54:44;2.70;;;2.43;;
1925;SDS011;964;42.606;23.588;2023-03-31T13:57:34;4.20;;;2.03;;
1925;SDS011;964;42.606;23.588;2023-03-31T14:00:25;4.70;;;2.27;;
1925;SDS011;964;42.606;23.588;2023-03-31T14:05:55;3.60;;;2.60;;
1925;SDS011;964;42.606;23.588;2023-03-31T14:08:31;3.10;;;2.07;;
1925;SDS011;964;42.606;23.588;2023-03-31T14:11:15;3.43;;;2.03;;
1925;SDS011;964;42.606;23.588;2023-03-31T14:13:44;5.78;;;2.03;;
1925;SDS011;964;42.606;23.588;2023-03-31T14:16:24;4.13;;;2.33;;
1925;SDS011;964;42.606;23.588;2023-03-31T14:18:52;3.73;;;2.50;;
1925;SDS011;964;42.606;23.588;2023-03-31T14:21:26;4.23;;;2.30;;
1925;SDS011;964;42.606;23.588;2023-03-31T14:24:01;4.20;;;1.90;;
1925;SDS011;964;42.606;23.588;2023-03-31T14:26:38;4.13;;;2.17;;
1925;SDS011;964;42.606;23.588;2023-03-31T14:29:16;4.50;;;2.20;;
1925;SDS011;964;42.606;23.588;2023-03-31T14:31:49;2.80;;;1.97;;
1925;SDS011;964;42.606;23.588;2023-03-31T14:37:19;4.73;;;2.53;;
1925;SDS011;964;42.606;23.588;2023-03-31T14:39:48;4.80;;;2.17;;
1925;SDS011;964;42.606;23.588;2023-03-31T14:42:19;5.33;;;2.27;;
1925;SDS011;964;42.606;23.588;2023-03-31T14:44:52;4.03;;;1.97;;
1925;SDS011;964;42.606;23.588;2023-03-31T14:47:22;6.70;;;2.20;;
1925;SDS011;964;42.606;23.588;2023-03-31T14:50:04;3.03;;;1.87;;
1925;SDS011;964;42.606;23.588;2023-03-31T14:52:37;3.70;;;2.13;;
1925;SDS011;964;42.606;23.588;2023-03-31T14:55:05;4.57;;;2.50;;
1925;SDS011;964;42.606;23.588;2023-03-31T14:57:32;2.47;;;1.87;;
1925;SDS011;964;42.606;23.588;2023-03-31T15:00:04;4.10;;;2.43;;
1925;SDS011;964;42.606;23.588;2023-03-31T15:02:35;2.67;;;1.83;;
1925;SDS011;964;42.606;23.588;2023-03-31T15:05:03;5.13;;;2.17;;
1925;SDS011;964;42.606;23.588;2023-03-31T15:07:32;4.00;;;2.07;;
1925;SDS011;964;42.606;23.588;2023-03-31T15:09:59;6.70;;;2.20;;
1925;SDS011;964;42.606;23.588;2023-03-31T15:12:27;3.10;;;2.37;;
1925;SDS011;964;42.606;23.588;2023-03-31T15:14:56;6.63;;;1.90;;
1925;SDS011;964;42.606;23.588;2023-03-31T15:17:30;2.33;;;2.10;;
1925;SDS011;964;42.606;23.588;2023-03-31T15:20:20;4.27;;;2.07;;
1925;SDS011;964;42.606;23.588;2023-03-31T15:22:52;3.20;;;2.50;;
1925;SDS011;964;42.606;23.588;2023-03-31T15:25:19;4.23;;;2.37;;
1925;SDS011;964;42.606;23.588;2023-03-31T15:27:47;5.03;;;2.17;;
1925;SDS011;964;42.606;23.588;2023-03-31T15:30:17;4.47;;;2.17;;
1925;SDS011;964;42.606;23.588;2023-03-31T15:32:48;5.00;;;2.30;;
1925;SDS011;964;42.606;23.588;2023-03-31T15:35:18;4.23;;;2.37;;
1925;SDS011;964;42.606;23.588;2023-03-31T15:37:48;3.23;;;2.10;;
1925;SDS011;964;42.606;23.588;2023-03-31T15:40:17;3.00;;;2.23;;
1925;SDS011;964;42.606;23.588;2023-03-31T15:42:46;6.23;;;2.93;;
1925;SDS011;964;42.606;23.588;2023-03-31T15:48:13;5.77;;;2.47;;
1925;SDS011;964;42.606;23.588;2023-03-31T15:50:44;2.83;;;2.43;;
1925;SDS011;964;42.606;23.588;2023-03-31T15:53:20;4.83;;;2.37;;
1925;SDS011;964;42.606;23.588;2023-03-31T15:55:52;3.50;;;2.40;;
1925;SDS011;964;42.606;23.588;2023-03-31T15:58:20;3.63;;;2.30;;
1925;SDS011;964;42.606;23.588;2023-03-31T16:00:52;4.40;;;2.23;;
1925;SDS011;964;42.606;23.588;2023-03-31T16:03:32;2.90;;;1.90;;
1925;SDS011;964;42.606;23.588;2023-03-31T16:06:02;5.87;;;2.50;;
1925;SDS011;964;42.606;23.588;2023-03-31T16:08:35;3.60;;;2.70;;
1925;SDS011;964;42.606;23.588;2023-03-31T16:11:04;5.73;;;3.30;;
1925;SDS011;964;42.606;23.588;2023-03-31T16:13:35;7.20;;;4.47;;
1925;SDS011;964;42.606;23.588;2023-03-31T16:16:06;9.57;;;5.17;;
1925;SDS011;964;42.606;23.588;2023-03-31T16:18:38;7.40;;;5.13;;